sensor_id;sensor_type;location;lat;lon;timestamp;P1;durP1;ratioP1;P2;durP2;ratioP2
21848;SDS011;11089;49.852;19.700;2023-04-22T00:02:01;13.88;;;7.15;;
21848;SDS011;11089;49.852;19.700;2023-04-22T00:05:03;19.60;;;7.68;;
21848;SDS011;11089;49.852;19.700;2023-04-22T00:08:06;10.15;;;6.18;;
21848;SDS011;11089;49.852;19.700;2023-04-22T00:11:07;17.80;;;7.15;;
21848;SDS011;11089;49.852;19.700;2023-04-22T00:14:08;12.32;;;7.35;;
21848;SDS011;11089;49.852;19.700;2023-04-22T00:17:09;15.52;;;7.30;;
21848;SDS011;11089;49.852;19.700;2023-04-22T00:20:10;11.48;;;6.60;;
21848;SDS011;11089;49.852;19.700;2023-04-22T00:23:11;11.85;;;6.28;;
21848;SDS011;11089;49.852;19.700;2023-04-22T00:26:12;11.27;;;6.25;;
21848;SDS011;11089;49.852;19.700;2023-04-22T00:29:13;10.10;;;5.57;;
21848;SDS011;11089;49.852;19.700;2023-04-22T00:32:14;14.93;;;6.88;;
21848;SDS011;11089;49.852;19.700;2023-04-22T00:35:15;10.65;;;6.05;;
21848;SDS011;11089;49.852;19.700;2023-04-22T00:38:16;10.95;;;5.22;;
21848;SDS011;11089;49.852;19.700;2023-04-22T00:41:17;11.75;;;7.00;;
21848;SDS011;11089;49.852;19.700;2023-04-22T00:44:19;10.07;;;5.22;;
21848;SDS011;11089;49.852;19.700;2023-04-22T00:47:21;9.70;;;5.55;;
21848;SDS011;11089;49.852;19.700;2023-04-22T00:50:25;12.07;;;5.60;;
21848;SDS011;11089;49.852;19.700;2023-04-22T00:53:26;9.60;;;5.50;;
21848;SDS011;11089;49.852;19.700;2023-04-22T00:56:27;12.02;;;6.22;;
21848;SDS011;11089;49.852;19.700;2023-04-22T00:59:29;14.15;;;6.57;;
21848;SDS011;11089;49.852;19.700;2023-04-22T01:02:30;15.15;;;6.78;;
21848;SDS011;11089;49.852;19.700;2023-04-22T01:05:31;17.95;;;7.40;;
21848;SDS011;11089;49.852;19.700;2023-04-22T01:08:33;12.07;;;6.35;;
21848;SDS011;11089;49.852;19.700;2023-04-22T01:11:35;15.07;;;7.22;;
21848;SDS011;11089;49.852;19.700;2023-04-22T01:14:36;15.15;;;7.60;;
21848;SDS011;11089;49.852;19.700;2023-04-22T01:17:37;13.85;;;7.38;;
21848;SDS011;11089;49.852;19.700;2023-04-22T01:20:38;14.45;;;7.25;;
21848;SDS011;11089;49.852;19.700;2023-04-22T01:23:39;13.52;;;7.25;;
21848;SDS011;11089;49.852;19.700;2023-04-22T01:26:40;12.93;;;7.65;;
21848;SDS011;11089;49.852;19.700;2023-04-22T01:29:42;15.98;;;8.25;;
21848;SDS011;11089;49.852;19.700;2023-04-22T01:32:43;14.13;;;7.82;;
21848;SDS011;11089;49.852;19.700;2023-04-22T01:35:44;14.98;;;7.47;;
21848;SDS011;11089;49.852;19.700;2023-04-22T01:38:45;13.60;;;6.78;;
21848;SDS011;11089;49.852;19.700;2023-04-22T01:41:46;14.35;;;6.18;;
21848;SDS011;11089;49.852;19.700;2023-04-22T01:44:47;11.23;;;6.70;;
21848;SDS011;11089;49.852;19.700;2023-04-22T01:47:48;9.57;;;5.82;;
21848;SDS011;11089;49.852;19.700;2023-04-22T01:50:49;13.45;;;5.80;;
21848;SDS011;11089;49.852;19.700;2023-04-22T01:53:50;11.43;;;6.32;;
21848;SDS011;11089;49.852;19.700;2023-04-22T01:56:52;12.80;;;6.53;;
21848;SDS011;11089;49.852;19.700;2023-04-22T01:59:53;10.73;;;6.10;;
21848;SDS011;11089;49.852;19.700;2023-04-22T02:02:54;12.55;;;6.65;;
21848;SDS011;11089;49.852;19.700;2023-04-22T02:05:55;12.05;;;6.18;;
21848;SDS011;11089;49.852;19.700;2023-04-22T02:08:56;11.05;;;6.13;;
21848;SDS011;11089;49.852;19.700;2023-04-22T02:11:57;13.15;;;6.78;;
21848;SDS011;11089;49.852;19.700;2023-04-22T02:14:58;12.40;;;6.65;;
21848;SDS011;11089;49.852;19.700;2023-04-22T02:17:58;9.45;;;6.07;;
21848;SDS011;11089;49.852;19.700;2023-04-22T02:20:59;10.05;;;6.13;;
21848;SDS011;11089;49.852;19.700;2023-04-22T02:24:00;11.23;;;6.20;;
21848;SDS011;11089;49.852;19.700;2023-04-22T02:27:01;10.05;;;5.72;;
21848;SDS011;11089;49.852;19.700;2023-04-22T02:30:02;12.98;;;5.88;;
21848;SDS011;11089;49.852;19.700;2023-04-22T02:33:04;10.68;;;5.28;;
21848;SDS011;11089;49.852;19.700;2023-04-22T02:36:04;8.70;;;5.10;;
21848;SDS011;11089;49.852;19.700;2023-04-22T02:39:05;12.05;;;5.38;;
21848;SDS011;11089;49.852;19.700;2023-04-22T02:42:06;11.60;;;6.25;;
21848;SDS011;11089;49.852;19.700;2023-04-22T02:45:07;8.43;;;5.22;;
21848;SDS011;11089;49.852;19.700;2023-04-22T02:48:08;11.07;;;5.72;;
21848;SDS011;11089;49.852;19.700;2023-04-22T02:51:09;10.15;;;6.30;;
21848;SDS011;11089;49.852;19.700;2023-04-22T02:54:10;10.25;;;5.88;;
21848;SDS011;11089;49.852;19.700;2023-04-22T02:57:11;17.52;;;8.68;;
21848;SDS011;11089;49.852;19.700;2023-04-22T03:00:12;13.63;;;7.32;;
21848;SDS011;11089;49.852;19.700;2023-04-22T03:03:13;13.45;;;7.22;;
21848;SDS011;11089;49.852;19.700;2023-04-22T03:06:14;12.45;;;7.57;;
21848;SDS011;11089;49.852;19.700;2023-04-22T03:09:15;12.57;;;7.18;;
21848;SDS011;11089;49.852;19.700;2023-04-22T03:12:17;15.77;;;7.97;;
21848;SDS011;11089;49.852;19.700;2023-04-22T03:15:17;15.15;;;7.10;;
21848;SDS011;11089;49.852;19.700;2023-04-22T03:18:18;11.57;;;6.88;;
21848;SDS011;11089;49.852;19.700;2023-04-22T03:21:19;12.85;;;6.57;;
21848;SDS011;11089;49.852;19.700;2023-04-22T03:24:20;11.80;;;6.97;;
21848;SDS011;11089;49.852;19.700;2023-04-22T03:27:21;12.82;;;6.10;;
21848;SDS011;11089;49.852;19.700;2023-04-22T03:30:22;10.45;;;6.07;;
21848;SDS011;11089;49.852;19.700;2023-04-22T03:33:23;10.70;;;6.18;;
21848;SDS011;11089;49.852;19.700;2023-04-22T03:36:24;10.07;;;5.85;;
21848;SDS011;11089;49.852;19.700;2023-04-22T03:39:26;10.75;;;6.25;;
21848;SDS011;11089;49.852;19.700;2023-04-22T03:42:27;12.00;;;6.35;;
21848;SDS011;11089;49.852;19.700;2023-04-22T03:45:28;11.20;;;6.38;;
21848;SDS011;11089;49.852;19.700;2023-04-22T03:48:29;12.50;;;6.82;;
21848;SDS011;11089;49.852;19.700;2023-04-22T03:51:34;10.02;;;6.45;;
21848;SDS011;11089;49.852;19.700;2023-04-22T03:54:35;10.82;;;6.72;;
21848;SDS011;11089;49.852;19.700;2023-04-22T03:57:36;12.38;;;7.22;;
21848;SDS011;11089;49.852;19.700;2023-04-22T04:00:37;14.45;;;7.15;;
21848;SDS011;11089;49.852;19.700;2023-04-22T04:03:38;14.98;;;7.07;;
21848;SDS011;11089;49.852;19.700;2023-04-22T04:06:39;12.65;;;7.22;;
21848;SDS011;11089;49.852;19.700;2023-04-22T04:09:40;14.32;;;7.35;;
21848;SDS011;11089;49.852;19.700;2023-04-22T04:12:41;12.60;;;6.68;;
21848;SDS011;11089;49.852;19.700;2023-04-22T04:15:41;8.38;;;5.75;;
21848;SDS011;11089;49.852;19.700;2023-04-22T04:18:43;9.73;;;5.88;;
21848;SDS011;11089;49.852;19.700;2023-04-22T04:21:43;9.85;;;6.07;;
21848;SDS011;11089;49.852;19.700;2023-04-22T04:24:45;11.52;;;6.20;;
21848;SDS011;11089;49.852;19.700;2023-04-22T04:27:46;10.50;;;5.72;;
21848;SDS011;11089;49.852;19.700;2023-04-22T04:30:47;11.35;;;5.53;;
21848;SDS011;11089;49.852;19.700;2023-04-22T04:33:48;12.88;;;5.68;;
21848;SDS011;11089;49.852;19.700;2023-04-22T04:36:49;12.40;;;6.18;;
21848;SDS011;11089;49.852;19.700;2023-04-22T04:39:50;12.10;;;6.28;;
21848;SDS011;11089;49.852;19.700;2023-04-22T04:42:51;12.90;;;5.63;;
21848;SDS011;11089;49.852;19.700;2023-04-22T04:45:52;9.95;;;5.00;;
21848;SDS011;11089;49.852;19.700;2023-04-22T04:48:53;7.82;;;4.70;;
21848;SDS011;11089;49.852;19.700;2023-04-22T04:51:57;11.73;;;4.90;;
21848;SDS011;11089;49.852;19.700;2023-04-22T04:54:58;9.05;;;4.95;;
21848;SDS011;11089;49.852;19.700;2023-04-22T04:57:59;10.73;;;5.63;;
21848;SDS011;11089;49.852;19.700;2023-04-22T05:01:00;8.80;;;4.97;;
21848;SDS011;11089;49.852;19.700;2023-04-22T05:04:01;12.30;;;5.63;;
21848;SDS011;11089;49.852;19.700;2023-04-22T05:07:02;9.43;;;5.15;;
21848;SDS011;11089;49.852;19.700;2023-04-22T05:10:03;8.98;;;5.47;;
21848;SDS011;11089;49.852;19.700;2023-04-22T05:13:04;9.88;;;5.68;;
21848;SDS011;11089;49.852;19.700;2023-04-22T05:16:05;11.45;;;5.47;;
21848;SDS011;11089;49.852;19.700;2023-04-22T05:19:06;9.07;;;5.07;;
21848;SDS011;11089;49.852;19.700;2023-04-22T05:22:07;7.28;;;4.72;;
21848;SDS011;11089;49.852;19.700;2023-04-22T05:25:08;12.98;;;6.25;;
21848;SDS011;11089;49.852;19.700;2023-04-22T05:28:10;9.85;;;5.53;;
21848;SDS011;11089;49.852;19.700;2023-04-22T05:31:11;14.18;;;6.25;;
21848;SDS011;11089;49.852;19.700;2023-04-22T05:34:12;12.55;;;6.00;;
21848;SDS011;11089;49.852;19.700;2023-04-22T05:37:13;12.13;;;6.07;;
21848;SDS011;11089;49.852;19.700;2023-04-22T05:40:14;15.50;;;6.57;;
21848;SDS011;11089;49.852;19.700;2023-04-22T05:43:15;8.13;;;5.30;;
21848;SDS011;11089;49.852;19.700;2023-04-22T05:46:15;11.38;;;5.47;;
21848;SDS011;11089;49.852;19.700;2023-04-22T05:49:16;9.63;;;5.70;;
21848;SDS011;11089;49.852;19.700;2023-04-22T05:52:17;9.95;;;5.68;;
21848;SDS011;11089;49.852;19.700;2023-04-22T05:55:18;10.43;;;5.50;;
21848;SDS011;11089;49.852;19.700;2023-04-22T05:58:19;10.38;;;5.55;;
21848;SDS011;11089;49.852;19.700;2023-04-22T06:01:20;8.02;;;5.10;;
21848;SDS011;11089;49.852;19.700;2023-04-22T06:04:21;8.25;;;5.07;;
21848;SDS011;11089;49.852;19.700;2023-04-22T06:07:21;11.00;;;5.38;;
21848;SDS011;11089;49.852;19.700;2023-04-22T06:10:22;8.75;;;5.05;;
21848;SDS011;11089;49.852;19.700;2023-04-22T06:13:23;8.18;;;5.03;;
21848;SDS011;11089;49.852;19.700;2023-04-22T06:16:25;8.88;;;4.97;;
21848;SDS011;11089;49.852;19.700;2023-04-22T06:19:26;9.82;;;5.30;;
21848;SDS011;11089;49.852;19.700;2023-04-22T06:22:27;9.52;;;4.63;;
21848;SDS011;11089;49.852;19.700;2023-04-22T06:25:28;8.27;;;5.45;;
21848;SDS011;11089;49.852;19.700;2023-04-22T06:28:29;8.73;;;5.18;;
21848;SDS011;11089;49.852;19.700;2023-04-22T06:31:30;8.57;;;5.05;;
21848;SDS011;11089;49.852;19.700;2023-04-22T06:34:31;7.05;;;4.47;;
21848;SDS011;11089;49.852;19.700;2023-04-22T06:37:32;9.48;;;5.85;;
21848;SDS011;11089;49.852;19.700;2023-04-22T06:40:33;12.63;;;6.72;;
21848;SDS011;11089;49.852;19.700;2023-04-22T06:43:34;9.13;;;5.55;;
21848;SDS011;11089;49.852;19.700;2023-04-22T06:46:35;12.20;;;7.07;;
21848;SDS011;11089;49.852;19.700;2023-04-22T06:49:37;14.40;;;7.07;;
21848;SDS011;11089;49.852;19.700;2023-04-22T06:52:38;12.52;;;7.00;;
21848;SDS011;11089;49.852;19.700;2023-04-22T06:55:39;13.60;;;8.55;;
21848;SDS011;11089;49.852;19.700;2023-04-22T06:58:40;16.98;;;9.60;;
21848;SDS011;11089;49.852;19.700;2023-04-22T07:01:41;16.20;;;9.27;;
21848;SDS011;11089;49.852;19.700;2023-04-22T07:04:42;21.25;;;8.60;;
21848;SDS011;11089;49.852;19.700;2023-04-22T07:07:43;21.80;;;10.48;;
21848;SDS011;11089;49.852;19.700;2023-04-22T07:10:44;14.43;;;8.80;;
21848;SDS011;11089;49.852;19.700;2023-04-22T07:13:45;14.75;;;8.32;;
21848;SDS011;11089;49.852;19.700;2023-04-22T07:16:46;12.68;;;7.50;;
21848;SDS011;11089;49.852;19.700;2023-04-22T07:19:47;10.40;;;7.00;;
21848;SDS011;11089;49.852;19.700;2023-04-22T07:22:49;12.60;;;7.32;;
21848;SDS011;11089;49.852;19.700;2023-04-22T07:25:51;10.73;;;5.80;;
21848;SDS011;11089;49.852;19.700;2023-04-22T07:28:52;9.98;;;6.10;;
21848;SDS011;11089;49.852;19.700;2023-04-22T07:31:53;11.57;;;6.28;;
21848;SDS011;11089;49.852;19.700;2023-04-22T07:34:54;9.32;;;5.60;;
21848;SDS011;11089;49.852;19.700;2023-04-22T07:37:55;11.20;;;6.25;;
21848;SDS011;11089;49.852;19.700;2023-04-22T07:40:56;14.20;;;5.85;;
21848;SDS011;11089;49.852;19.700;2023-04-22T07:43:57;8.82;;;5.10;;
21848;SDS011;11089;49.852;19.700;2023-04-22T07:46:57;10.00;;;5.80;;
21848;SDS011;11089;49.852;19.700;2023-04-22T07:49:58;8.85;;;5.68;;
21848;SDS011;11089;49.852;19.700;2023-04-22T07:53:00;8.00;;;5.07;;
21848;SDS011;11089;49.852;19.700;2023-04-22T07:56:01;9.68;;;5.10;;
21848;SDS011;11089;49.852;19.700;2023-04-22T07:59:02;9.95;;;5.20;;
21848;SDS011;11089;49.852;19.700;2023-04-22T08:02:03;7.70;;;5.47;;
21848;SDS011;11089;49.852;19.700;2023-04-22T08:05:04;8.10;;;5.00;;
21848;SDS011;11089;49.852;19.700;2023-04-22T08:08:05;8.32;;;5.50;;
21848;SDS011;11089;49.852;19.700;2023-04-22T08:11:07;9.73;;;4.88;;
21848;SDS011;11089;49.852;19.700;2023-04-22T08:14:08;7.47;;;4.60;;
21848;SDS011;11089;49.852;19.700;2023-04-22T08:17:09;7.88;;;4.95;;
21848;SDS011;11089;49.852;19.700;2023-04-22T08:20:10;6.45;;;4.38;;
21848;SDS011;11089;49.852;19.700;2023-04-22T08:23:11;5.80;;;4.10;;
21848;SDS011;11089;49.852;19.700;2023-04-22T08:26:12;6.55;;;4.18;;
21848;SDS011;11089;49.852;19.700;2023-04-22T08:29:14;6.35;;;3.80;;
21848;SDS011;11089;49.852;19.700;2023-04-22T08:32:15;6.65;;;3.75;;
21848;SDS011;11089;49.852;19.700;2023-04-22T08:35:18;8.35;;;4.05;;
21848;SDS011;11089;49.852;19.700;2023-04-22T08:38:19;6.22;;;4.25;;
21848;SDS011;11089;49.852;19.700;2023-04-22T08:41:20;7.25;;;4.18;;
21848;SDS011;11089;49.852;19.700;2023-04-22T08:44:21;5.38;;;3.92;;
21848;SDS011;11089;49.852;19.700;2023-04-22T08:47:22;7.65;;;5.05;;
21848;SDS011;11089;49.852;19.700;2023-04-22T08:50:25;7.43;;;4.70;;
21848;SDS011;11089;49.852;19.700;2023-04-22T08:53:29;7.43;;;4.40;;
21848;SDS011;11089;49.852;19.700;2023-04-22T08:56:31;6.30;;;4.07;;
21848;SDS011;11089;49.852;19.700;2023-04-22T08:59:32;8.23;;;4.68;;
21848;SDS011;11089;49.852;19.700;2023-04-22T09:02:35;5.15;;;4.22;;
21848;SDS011;11089;49.852;19.700;2023-04-22T09:05:39;6.05;;;4.05;;
21848;SDS011;11089;49.852;19.700;2023-04-22T09:08:40;6.93;;;4.70;;
21848;SDS011;11089;49.852;19.700;2023-04-22T09:11:42;6.53;;;4.28;;
21848;SDS011;11089;49.852;19.700;2023-04-22T09:14:42;6.50;;;4.32;;
21848;SDS011;11089;49.852;19.700;2023-04-22T09:17:44;6.32;;;4.65;;
21848;SDS011;11089;49.852;19.700;2023-04-22T09:20:46;9.82;;;5.32;;
21848;SDS011;11089;49.852;19.700;2023-04-22T09:23:48;4.70;;;4.13;;
21848;SDS011;11089;49.852;19.700;2023-04-22T09:26:50;6.22;;;4.50;;
21848;SDS011;11089;49.852;19.700;2023-04-22T09:29:53;6.28;;;4.05;;
21848;SDS011;11089;49.852;19.700;2023-04-22T09:32:55;6.85;;;4.15;;
21848;SDS011;11089;49.852;19.700;2023-04-22T09:35:57;7.03;;;3.95;;
21848;SDS011;11089;49.852;19.700;2023-04-22T09:39:00;5.53;;;3.83;;
21848;SDS011;11089;49.852;19.700;2023-04-22T09:42:08;5.43;;;3.50;;
21848;SDS011;11089;49.852;19.700;2023-04-22T09:45:10;7.38;;;4.22;;
21848;SDS011;11089;49.852;19.700;2023-04-22T09:48:12;5.25;;;3.78;;
21848;SDS011;11089;49.852;19.700;2023-04-22T09:51:15;7.55;;;4.13;;
21848;SDS011;11089;49.852;19.700;2023-04-22T09:54:16;6.05;;;4.00;;
21848;SDS011;11089;49.852;19.700;2023-04-22T09:57:17;6.82;;;3.88;;
21848;SDS011;11089;49.852;19.700;2023-04-22T10:00:20;7.47;;;3.50;;
21848;SDS011;11089;49.852;19.700;2023-04-22T10:03:23;5.75;;;3.35;;
21848;SDS011;11089;49.852;19.700;2023-04-22T10:06:24;4.05;;;3.42;;
21848;SDS011;11089;49.852;19.700;2023-04-22T10:09:24;5.18;;;3.28;;
21848;SDS011;11089;49.852;19.700;2023-04-22T10:12:26;5.97;;;3.58;;
21848;SDS011;11089;49.852;19.700;2023-04-22T10:15:31;5.70;;;3.47;;
21848;SDS011;11089;49.852;19.700;2023-04-22T10:18:37;5.82;;;3.35;;
21848;SDS011;11089;49.852;19.700;2023-04-22T10:21:40;5.85;;;3.20;;
21848;SDS011;11089;49.852;19.700;2023-04-22T10:24:46;5.35;;;3.30;;
21848;SDS011;11089;49.852;19.700;2023-04-22T10:31:05;4.82;;;3.75;;
21848;SDS011;11089;49.852;19.700;2023-04-22T10:34:13;6.47;;;3.35;;
21848;SDS011;11089;49.852;19.700;2023-04-22T10:37:18;4.85;;;3.85;;
21848;SDS011;11089;49.852;19.700;2023-04-22T10:40:19;5.10;;;4.03;;
21848;SDS011;11089;49.852;19.700;2023-04-22T10:43:35;6.95;;;3.70;;
21848;SDS011;11089;49.852;19.700;2023-04-22T10:56:58;4.68;;;3.53;;
21848;SDS011;11089;49.852;19.700;2023-04-22T11:03:32;5.20;;;3.40;;
21848;SDS011;11089;49.852;19.700;2023-04-22T11:06:33;6.15;;;3.22;;
21848;SDS011;11089;49.852;19.700;2023-04-22T11:09:38;4.03;;;2.72;;
21848;SDS011;11089;49.852;19.700;2023-04-22T11:15:43;3.67;;;3.30;;
21848;SDS011;11089;49.852;19.700;2023-04-22T11:18:54;4.30;;;3.22;;
21848;SDS011;11089;49.852;19.700;2023-04-22T11:21:55;5.40;;;3.78;;
21848;SDS011;11089;49.852;19.700;2023-04-22T11:24:58;4.60;;;3.83;;
21848;SDS011;11089;49.852;19.700;2023-04-22T11:28:00;5.75;;;3.72;;
21848;SDS011;11089;49.852;19.700;2023-04-22T11:31:01;5.18;;;3.85;;
21848;SDS011;11089;49.852;19.700;2023-04-22T11:34:03;7.32;;;4.85;;
21848;SDS011;11089;49.852;19.700;2023-04-22T11:37:07;5.35;;;3.40;;
21848;SDS011;11089;49.852;19.700;2023-04-22T11:40:09;4.30;;;3.42;;
21848;SDS011;11089;49.852;19.700;2023-04-22T11:43:11;4.80;;;4.00;;
21848;SDS011;11089;49.852;19.700;2023-04-22T11:46:12;5.03;;;3.80;;
21848;SDS011;11089;49.852;19.700;2023-04-22T11:49:14;5.72;;;3.92;;
21848;SDS011;11089;49.852;19.700;2023-04-22T11:52:15;6.88;;;3.92;;
21848;SDS011;11089;49.852;19.700;2023-04-22T11:55:23;11.32;;;5.32;;
21848;SDS011;11089;49.852;19.700;2023-04-22T11:58:29;7.32;;;4.25;;
21848;SDS011;11089;49.852;19.700;2023-04-22T12:01:30;5.20;;;3.92;;
21848;SDS011;11089;49.852;19.700;2023-04-22T12:04:40;6.13;;;4.13;;
21848;SDS011;11089;49.852;19.700;2023-04-22T12:07:42;4.70;;;3.60;;
21848;SDS011;11089;49.852;19.700;2023-04-22T12:10:55;7.10;;;3.95;;
21848;SDS011;11089;49.852;19.700;2023-04-22T12:14:03;7.05;;;4.28;;
21848;SDS011;11089;49.852;19.700;2023-04-22T12:17:08;6.55;;;4.10;;
21848;SDS011;11089;49.852;19.700;2023-04-22T12:20:11;6.88;;;4.15;;
21848;SDS011;11089;49.852;19.700;2023-04-22T12:23:14;6.63;;;5.00;;
21848;SDS011;11089;49.852;19.700;2023-04-22T12:26:16;6.07;;;4.28;;
21848;SDS011;11089;49.852;19.700;2023-04-22T12:29:25;5.22;;;3.72;;
21848;SDS011;11089;49.852;19.700;2023-04-22T12:32:31;6.22;;;3.85;;
21848;SDS011;11089;49.852;19.700;2023-04-22T12:35:32;8.13;;;4.78;;
21848;SDS011;11089;49.852;19.700;2023-04-22T12:38:33;5.68;;;4.20;;
21848;SDS011;11089;49.852;19.700;2023-04-22T12:41:34;8.05;;;4.50;;
21848;SDS011;11089;49.852;19.700;2023-04-22T12:44:35;7.50;;;4.72;;
21848;SDS011;11089;49.852;19.700;2023-04-22T12:47:36;5.22;;;3.78;;
21848;SDS011;11089;49.852;19.700;2023-04-22T12:50:37;5.18;;;3.90;;
21848;SDS011;11089;49.852;19.700;2023-04-22T12:53:38;6.07;;;4.22;;
21848;SDS011;11089;49.852;19.700;2023-04-22T12:56:39;4.97;;;3.85;;
21848;SDS011;11089;49.852;19.700;2023-04-22T12:59:40;4.97;;;3.63;;
21848;SDS011;11089;49.852;19.700;2023-04-22T13:02:41;5.70;;;3.65;;
21848;SDS011;11089;49.852;19.700;2023-04-22T13:05:43;7.10;;;4.15;;
21848;SDS011;11089;49.852;19.700;2023-04-22T13:08:45;4.57;;;3.38;;
21848;SDS011;11089;49.852;19.700;2023-04-22T13:11:46;6.03;;;4.00;;
21848;SDS011;11089;49.852;19.700;2023-04-22T13:14:48;4.82;;;3.30;;
21848;SDS011;11089;49.852;19.700;2023-04-22T13:17:49;5.60;;;3.55;;
21848;SDS011;11089;49.852;19.700;2023-04-22T13:20:50;10.23;;;4.43;;
21848;SDS011;11089;49.852;19.700;2023-04-22T13:23:51;8.52;;;4.53;;
21848;SDS011;11089;49.852;19.700;2023-04-22T13:26:52;6.88;;;4.22;;
21848;SDS011;11089;49.852;19.700;2023-04-22T13:29:53;7.32;;;4.22;;
21848;SDS011;11089;49.852;19.700;2023-04-22T13:32:54;6.13;;;4.05;;
21848;SDS011;11089;49.852;19.700;2023-04-22T13:35:55;7.70;;;4.82;;
21848;SDS011;11089;49.852;19.700;2023-04-22T13:38:56;5.53;;;3.90;;
21848;SDS011;11089;49.852;19.700;2023-04-22T13:41:57;9.55;;;3.72;;
21848;SDS011;11089;49.852;19.700;2023-04-22T13:45:02;5.75;;;3.70;;
21848;SDS011;11089;49.852;19.700;2023-04-22T13:48:03;4.57;;;4.00;;
21848;SDS011;11089;49.852;19.700;2023-04-22T13:51:04;6.25;;;4.38;;
21848;SDS011;11089;49.852;19.700;2023-04-22T13:54:05;7.35;;;4.10;;
21848;SDS011;11089;49.852;19.700;2023-04-22T13:57:07;4.15;;;3.72;;
21848;SDS011;11089;49.852;19.700;2023-04-22T14:00:08;7.55;;;4.15;;
21848;SDS011;11089;49.852;19.700;2023-04-22T14:03:09;5.47;;;3.90;;
21848;SDS011;11089;49.852;19.700;2023-04-22T14:06:10;7.05;;;4.00;;
21848;SDS011;11089;49.852;19.700;2023-04-22T14:09:11;5.88;;;4.00;;
21848;SDS011;11089;49.852;19.700;2023-04-22T14:12:12;9.13;;;4.60;;
21848;SDS011;11089;49.852;19.700;2023-04-22T14:15:13;6.97;;;3.78;;
21848;SDS011;11089;49.852;19.700;2023-04-22T14:18:14;5.63;;;3.70;;
21848;SDS011;11089;49.852;19.700;2023-04-22T14:21:15;9.13;;;4.20;;
21848;SDS011;11089;49.852;19.700;2023-04-22T14:24:16;6.82;;;4.15;;
21848;SDS011;11089;49.852;19.700;2023-04-22T14:27:18;6.53;;;4.03;;
21848;SDS011;11089;49.852;19.700;2023-04-22T14:30:19;4.90;;;4.00;;
21848;SDS011;11089;49.852;19.700;2023-04-22T14:33:22;5.55;;;3.70;;
21848;SDS011;11089;49.852;19.700;2023-04-22T14:36:23;5.55;;;4.40;;
21848;SDS011;11089;49.852;19.700;2023-04-22T14:39:24;6.45;;;4.18;;
21848;SDS011;11089;49.852;19.700;2023-04-22T14:42:26;5.35;;;4.07;;
21848;SDS011;11089;49.852;19.700;2023-04-22T14:45:27;9.50;;;4.38;;
21848;SDS011;11089;49.852;19.700;2023-04-22T14:48:29;7.20;;;4.32;;
21848;SDS011;11089;49.852;19.700;2023-04-22T14:51:31;7.28;;;3.70;;
21848;SDS011;11089;49.852;19.700;2023-04-22T14:54:32;9.00;;;4.18;;
21848;SDS011;11089;49.852;19.700;2023-04-22T14:57:33;5.45;;;3.83;;
21848;SDS011;11089;49.852;19.700;2023-04-22T15:00:34;5.93;;;4.10;;
21848;SDS011;11089;49.852;19.700;2023-04-22T15:03:35;5.63;;;4.05;;
21848;SDS011;11089;49.852;19.700;2023-04-22T15:06:36;8.50;;;4.80;;
21848;SDS011;11089;49.852;19.700;2023-04-22T15:09:37;6.95;;;5.05;;
21848;SDS011;11089;49.852;19.700;2023-04-22T15:12:38;6.68;;;4.43;;
21848;SDS011;11089;49.852;19.700;2023-04-22T15:15:39;5.70;;;4.10;;
21848;SDS011;11089;49.852;19.700;2023-04-22T15:18:41;10.27;;;5.45;;
21848;SDS011;11089;49.852;19.700;2023-04-22T15:21:42;8.27;;;4.57;;
21848;SDS011;11089;49.852;19.700;2023-04-22T15:24:43;10.10;;;4.35;;
21848;SDS011;11089;49.852;19.700;2023-04-22T15:27:44;9.43;;;5.13;;
21848;SDS011;11089;49.852;19.700;2023-04-22T15:30:45;8.23;;;4.47;;
21848;SDS011;11089;49.852;19.700;2023-04-22T15:33:47;5.10;;;4.40;;
21848;SDS011;11089;49.852;19.700;2023-04-22T15:36:48;7.05;;;4.45;;
21848;SDS011;11089;49.852;19.700;2023-04-22T15:39:49;7.45;;;4.85;;
21848;SDS011;11089;49.852;19.700;2023-04-22T15:42:50;7.18;;;4.40;;
21848;SDS011;11089;49.852;19.700;2023-04-22T15:45:51;8.93;;;4.97;;
21848;SDS011;11089;49.852;19.700;2023-04-22T15:48:52;7.72;;;4.68;;
21848;SDS011;11089;49.852;19.700;2023-04-22T15:51:56;7.75;;;4.63;;
21848;SDS011;11089;49.852;19.700;2023-04-22T15:54:57;6.70;;;4.90;;
21848;SDS011;11089;49.852;19.700;2023-04-22T15:58:00;6.00;;;4.60;;
21848;SDS011;11089;49.852;19.700;2023-04-22T16:01:01;7.95;;;4.90;;
21848;SDS011;11089;49.852;19.700;2023-04-22T16:04:03;10.75;;;5.45;;
21848;SDS011;11089;49.852;19.700;2023-04-22T16:07:04;8.73;;;5.00;;
21848;SDS011;11089;49.852;19.700;2023-04-22T16:10:05;8.15;;;5.63;;
21848;SDS011;11089;49.852;19.700;2023-04-22T16:13:07;7.15;;;4.95;;
21848;SDS011;11089;49.852;19.700;2023-04-22T16:16:08;9.48;;;5.47;;
21848;SDS011;11089;49.852;19.700;2023-04-22T16:19:09;9.07;;;4.82;;
21848;SDS011;11089;49.852;19.700;2023-04-22T16:22:10;8.65;;;5.15;;
21848;SDS011;11089;49.852;19.700;2023-04-22T16:25:11;6.35;;;4.50;;
21848;SDS011;11089;49.852;19.700;2023-04-22T16:28:12;6.82;;;4.95;;
21848;SDS011;11089;49.852;19.700;2023-04-22T16:31:13;6.85;;;5.20;;
21848;SDS011;11089;49.852;19.700;2023-04-22T16:34:17;8.10;;;4.63;;
21848;SDS011;11089;49.852;19.700;2023-04-22T16:37:18;10.93;;;5.97;;
21848;SDS011;11089;49.852;19.700;2023-04-22T16:40:18;29.00;;;20.88;;
21848;SDS011;11089;49.852;19.700;2023-04-22T16:43:19;14.68;;;10.70;;
21848;SDS011;11089;49.852;19.700;2023-04-22T16:46:20;18.27;;;12.18;;
21848;SDS011;11089;49.852;19.700;2023-04-22T16:49:21;32.20;;;19.40;;
21848;SDS011;11089;49.852;19.700;2023-04-22T16:52:22;100.78;;;59.13;;
21848;SDS011;11089;49.852;19.700;2023-04-22T16:55:23;56.47;;;35.08;;
21848;SDS011;11089;49.852;19.700;2023-04-22T16:58:24;55.50;;;32.22;;
21848;SDS011;11089;49.852;19.700;2023-04-22T17:01:26;27.02;;;17.60;;
21848;SDS011;11089;49.852;19.700;2023-04-22T17:04:29;26.05;;;18.10;;
21848;SDS011;11089;49.852;19.700;2023-04-22T17:07:30;23.10;;;18.08;;
21848;SDS011;11089;49.852;19.700;2023-04-22T17:10:30;48.85;;;34.97;;
21848;SDS011;11089;49.852;19.700;2023-04-22T17:13:32;36.88;;;22.40;;
21848;SDS011;11089;49.852;19.700;2023-04-22T17:16:33;55.95;;;39.97;;
21848;SDS011;11089;49.852;19.700;2023-04-22T17:19:33;24.88;;;19.58;;
21848;SDS011;11089;49.852;19.700;2023-04-22T17:22:35;24.88;;;17.20;;
21848;SDS011;11089;49.852;19.700;2023-04-22T17:25:36;24.25;;;16.20;;
21848;SDS011;11089;49.852;19.700;2023-04-22T17:28:37;24.48;;;17.30;;
21848;SDS011;11089;49.852;19.700;2023-04-22T17:31:38;34.20;;;23.48;;
21848;SDS011;11089;49.852;19.700;2023-04-22T17:34:39;31.75;;;21.45;;
21848;SDS011;11089;49.852;19.700;2023-04-22T17:37:40;42.60;;;31.88;;
21848;SDS011;11089;49.852;19.700;2023-04-22T17:40:41;26.73;;;17.55;;
21848;SDS011;11089;49.852;19.700;2023-04-22T17:43:42;24.75;;;14.60;;
21848;SDS011;11089;49.852;19.700;2023-04-22T17:46:43;22.98;;;15.07;;
21848;SDS011;11089;49.852;19.700;2023-04-22T17:49:44;23.95;;;14.48;;
21848;SDS011;11089;49.852;19.700;2023-04-22T17:52:45;27.77;;;15.32;;
21848;SDS011;11089;49.852;19.700;2023-04-22T17:55:46;127.80;;;85.20;;
21848;SDS011;11089;49.852;19.700;2023-04-22T17:58:47;44.22;;;27.92;;
21848;SDS011;11089;49.852;19.700;2023-04-22T18:01:48;20.42;;;12.65;;
21848;SDS011;11089;49.852;19.700;2023-04-22T18:04:49;21.83;;;13.77;;
21848;SDS011;11089;49.852;19.700;2023-04-22T18:07:50;21.83;;;15.07;;
21848;SDS011;11089;49.852;19.700;2023-04-22T18:10:56;22.73;;;14.15;;